Terminal Aerodrome Forecast
Issued by NWS

Home | Current Version | Previous Version | Text Only | Print | Product List | Glossary On
Versions: 1 2 3 4 5 6 7 8 9 10 11 12 13 14 15 16 17 18 19 20 21 22 23 24 25 26 27 28
000
FTAK31 PANC 240527
TAFADU
TAF
PADU 240527Z 2406/2506 24020G29KT P6SM -RA SCT025 BKN040
     FM241000 26013G22KT 6SM -RA BR SCT015 OVC025
     FM242300 32016G24KT P6SM BKN035=

USA.gov is the U.S. government's official web portal to all federal, state and local government web resources and services.